.
WxDataArchive / Data Records for 2010-02-26
2010-02-25 February 2010 2010-02-27

Data Records for Friday, 26 February 2010

Time	Temp	Chill	HIndex	Humid	Dewpt	 Wind 	HiWind	WindDir	Rain 	Barom 
-----	----	-----	------	-----	-----	------	------	-------	-----	----- 
00:00	27.0	27.0	27.0	77	20.8	2	5	315	0.00	29.981 
00:05	26.9	26.9	26.9	77	20.7	2	4	338	0.00	29.981 
00:10	26.9	26.9	26.9	77	20.7	2	4	270	0.00	29.981 
00:15	26.7	26.7	26.7	78	20.8	2	7	270	0.00	29.974 
00:20	26.7	26.7	26.7	78	20.8	2	6	270	0.00	29.974 
00:25	26.7	26.7	26.7	78	20.8	2	5	248	0.00	29.974 
00:30	26.7	26.7	26.7	78	20.8	2	6	270	0.00	29.971 
00:35	26.7	26.7	26.7	78	20.8	2	5	315	0.00	29.971 
00:40	26.6	26.6	26.6	78	20.7	2	4	315	0.00	29.971 
00:45	26.7	26.7	26.7	78	20.8	3	7	270	0.00	29.969 
00:50	26.7	26.7	26.7	78	20.8	2	4	338	0.00	29.969 
00:55	26.7	26.7	26.7	78	20.8	2	4	315	0.00	29.969 
01:00	26.7	26.7	26.7	78	20.8	3	9	270	0.00	29.968 
01:05	26.7	26.7	26.7	78	20.8	3	6	270	0.00	29.968 
01:10	26.7	26.7	26.7	78	20.8	3	5	270	0.00	29.968 
01:15	26.7	26.7	26.7	78	20.8	3	9	270	0.00	29.958 
01:20	26.9	26.9	26.9	78	21.0	3	6	292	0.00	29.958 
01:25	26.9	26.9	26.9	77	20.7	3	6	338	0.00	29.958 
01:30	26.9	26.9	26.9	77	20.7	3	7	338	0.00	29.956 
01:35	27.0	27.0	27.0	77	20.8	3	7	270	0.00	29.956 
01:40	27.0	27.0	27.0	77	20.8	3	6	270	0.00	29.956 
01:45	27.0	27.0	27.0	77	20.8	3	5	270	0.00	29.952 
01:50	27.0	27.0	27.0	77	20.8	3	5	248	0.00	29.952 
01:55	27.2	27.2	27.2	77	21.0	3	8	270	0.00	29.952 
02:00	27.2	27.2	27.2	76	20.7	3	6	270	0.00	29.948 
02:05	27.2	27.2	27.2	76	20.7	3	6	270	0.00	29.948 
02:10	27.3	27.3	27.3	77	21.1	2	6	315	0.00	29.948 
02:15	27.3	27.3	27.3	76	20.8	3	7	315	0.00	29.944 
02:20	27.3	27.3	27.3	76	20.8	3	6	315	0.00	29.944 
02:25	27.5	27.5	27.5	76	20.9	2	5	270	0.00	29.944 
02:30	27.5	27.5	27.5	76	20.9	2	4	315	0.00	29.938 
02:35	27.5	27.5	27.5	76	20.9	2	6	270	0.00	29.938 
02:40	27.6	27.6	27.6	76	21.0	3	7	248	0.00	29.938 
02:45	27.6	27.6	27.6	76	21.0	3	7	292	0.00	29.933 
02:50	27.8	27.8	27.8	76	21.2	2	5	270	0.00	29.933 
02:55	27.8	27.8	27.8	76	21.2	3	10	270	0.00	29.933 
03:00	27.9	27.9	27.9	76	21.3	3	15	315	0.00	29.925 
03:05	27.9	23.3	27.9	75	21.0	4	15	315	0.00	29.925 
03:10	28.1	28.1	28.1	75	21.2	3	8	270	0.00	29.925 
03:15	28.1	28.1	28.1	75	21.2	3	9	315	0.00	29.920 
03:20	28.1	28.1	28.1	75	21.2	3	6	315	0.00	29.920 
03:25	27.9	27.9	27.9	75	21.0	3	6	292	0.00	29.920 
03:30	27.9	23.3	27.9	75	21.0	4	11	270	0.00	29.915 
03:35	27.9	23.3	27.9	75	21.0	4	9	315	0.00	29.915 
03:40	27.9	27.9	27.9	75	21.0	2	5	292	0.00	29.915 
03:45	27.9	27.9	27.9	75	21.0	3	9	270	0.00	29.906 
03:50	27.9	27.9	27.9	75	21.0	2	6	338	0.00	29.906 
03:55	27.9	27.9	27.9	75	21.0	3	12	315	0.00	29.906 
04:00	27.9	27.9	27.9	75	21.0	3	7	292	0.00	29.904 
04:05	27.9	27.9	27.9	76	21.3	3	6	315	0.00	29.904 
04:10	27.9	27.9	27.9	76	21.3	3	9	270	0.00	29.904 
04:15	27.9	27.9	27.9	76	21.3	3	9	315	0.00	29.908 
04:20	28.1	28.1	28.1	77	21.8	2	9	270	0.00	29.908 
04:25	28.1	28.1	28.1	77	21.8	3	7	248	0.00	29.908 
04:30	28.1	28.1	28.1	77	21.8	3	7	338	0.00	29.906 
04:35	28.1	28.1	28.1	77	21.8	2	9	338	0.00	29.906 
04:40	28.2	28.2	28.2	77	21.9	3	6	270	0.00	29.906 
04:45	28.2	28.2	28.2	77	21.9	2	7	315	0.00	29.907 
04:50	28.2	28.2	28.2	77	21.9	2	6	292	0.00	29.907 
04:55	28.2	28.2	28.2	77	21.9	3	6	315	0.00	29.907 
05:00	28.2	28.2	28.2	77	21.9	3	8	315	0.00	29.909 
05:05	28.4	28.4	28.4	78	22.4	3	7	315	0.00	29.909 
05:10	28.2	28.2	28.2	78	22.2	3	6	315	0.00	29.909 
05:15	28.2	28.2	28.2	78	22.2	3	9	270	0.00	29.912 
05:20	28.2	28.2	28.2	78	22.2	3	9	315	0.00	29.912 
05:25	28.4	23.9	28.4	78	22.4	4	11	292	0.00	29.912 
05:30	28.2	23.7	28.2	78	22.2	4	10	315	0.00	29.916 
05:35	28.2	23.7	28.2	78	22.2	4	13	315	0.00	29.916 
05:40	28.2	28.2	28.2	79	22.5	3	7	248	0.00	29.916 
05:45	28.2	28.2	28.2	79	22.5	3	10	315	0.00	29.917 
05:50	28.2	28.2	28.2	79	22.5	3	12	315	0.00	29.917 
05:55	28.2	28.2	28.2	80	22.8	3	7	270	0.00	29.917 
06:00	28.2	28.2	28.2	80	22.8	2	6	338	0.00	29.913 
06:05	28.2	28.2	28.2	80	22.8	2	6	315	0.00	29.913 
06:10	28.2	28.2	28.2	80	22.8	3	14	270	0.00	29.913 
06:15	28.2	28.2	28.2	80	22.8	3	9	315	0.00	29.909 
06:20	28.2	28.2	28.2	80	22.8	2	5	270	0.00	29.909 
06:25	28.2	28.2	28.2	80	22.8	3	9	270	0.00	29.909 
06:30	28.2	28.2	28.2	80	22.8	2	6	270	0.00	29.907 
06:35	28.2	28.2	28.2	80	22.8	3	9	292	0.00	29.907 
06:40	28.2	28.2	28.2	81	23.1	3	6	292	0.00	29.907 
06:45	28.2	28.2	28.2	81	23.1	3	7	292	0.00	29.904 
06:50	28.2	28.2	28.2	81	23.1	3	12	270	0.00	29.904 
06:55	28.2	28.2	28.2	81	23.1	3	9	338	0.00	29.904 
07:00	28.2	28.2	28.2	80	22.8	2	7	292	0.00	29.900 
07:05	28.4	28.4	28.4	80	23.0	3	9	270	0.00	29.900 
07:10	28.4	28.4	28.4	79	22.7	3	7	270	0.00	29.900 
07:15	28.4	28.4	28.4	79	22.7	3	5	315	0.00	29.900 
07:20	28.4	28.4	28.4	79	22.7	2	5	292	0.00	29.900 
07:25	28.4	28.4	28.4	79	22.7	3	7	315	0.00	29.900 
07:30	28.4	28.4	28.4	79	22.7	3	10	248	0.00	29.900 
07:35	28.4	28.4	28.4	79	22.7	3	9	270	0.00	29.900 
07:40	28.4	28.4	28.4	79	22.7	2	5	270	0.00	29.900 
07:45	28.4	23.9	28.4	78	22.4	4	10	270	0.00	29.896 
07:50	28.5	28.5	28.5	78	22.5	3	8	270	0.00	29.896 
07:55	28.5	28.5	28.5	77	22.2	3	11	315	0.00	29.896 
08:00	28.5	28.5	28.5	77	22.2	2	7	315	0.00	29.901 
08:05	28.5	28.5	28.5	77	22.2	2	4	315	0.00	29.901 
08:10	28.5	28.5	28.5	78	22.5	3	9	315	0.00	29.901 
08:15	28.4	28.4	28.4	78	22.4	3	7	292	0.00	29.899 
08:20	28.4	23.9	28.4	78	22.4	4	7	315	0.00	29.899 
08:25	28.4	28.4	28.4	79	22.7	3	9	315	0.00	29.899 
08:30	28.4	22.8	28.4	78	22.4	5	10	270	0.00	29.891 
08:35	28.4	28.4	28.4	78	22.4	3	13	270	0.00	29.891 
08:40	28.4	28.4	28.4	78	22.4	3	10	315	0.00	29.891 
08:45	28.4	28.4	28.4	78	22.4	3	11	248	0.00	29.891 
08:50	28.5	28.5	28.5	78	22.5	3	9	292	0.00	29.891 
08:55	28.4	28.4	28.4	78	22.4	3	9	315	0.00	29.891 
09:00	28.4	28.4	28.4	79	22.7	3	9	270	0.00	29.890 
09:05	28.4	23.9	28.4	79	22.7	4	10	315	0.00	29.890 
09:10	28.4	28.4	28.4	79	22.7	2	6	248	0.00	29.890 
09:15	28.4	28.4	28.4	79	22.7	2	6	270	0.00	29.887 
09:20	28.4	23.9	28.4	79	22.7	4	12	292	0.00	29.887 
09:25	28.4	23.9	28.4	80	23.0	4	11	315	0.00	29.887 
09:30	28.4	28.4	28.4	80	23.0	3	9	270	0.00	29.882 
09:35	28.4	28.4	28.4	80	23.0	3	7	315	0.00	29.882 
09:40	28.4	23.9	28.4	80	23.0	4	8	270	0.00	29.882 
09:45	28.4	28.4	28.4	80	23.0	3	9	292	0.00	29.878 
09:50	28.4	28.4	28.4	80	23.0	3	6	270	0.00	29.878 
09:55	28.4	23.9	28.4	80	23.0	4	9	292	0.00	29.878 
10:00	28.4	28.4	28.4	80	23.0	3	9	292	0.00	29.875 
10:05	28.4	28.4	28.4	80	23.0	3	7	270	0.00	29.875 
10:10	28.4	28.4	28.4	80	23.0	3	6	270	0.00	29.875 
10:15	28.4	23.9	28.4	80	23.0	4	9	270	0.00	29.870 
10:20	28.4	28.4	28.4	80	23.0	3	7	315	0.00	29.870 
10:25	28.4	28.4	28.4	80	23.0	3	9	315	0.00	29.870 
10:30	28.2	23.7	28.2	80	22.8	4	10	270	0.00	29.863 
10:35	28.4	28.4	28.4	80	23.0	3	7	315	0.00	29.863 
10:40	28.4	28.4	28.4	79	22.7	3	12	292	0.00	29.863 
10:45	28.5	28.5	28.5	80	23.1	3	7	270	0.00	29.861 
10:50	28.7	28.7	28.7	79	23.0	3	9	270	0.00	29.861 
10:55	28.8	28.8	28.8	79	23.1	3	8	270	0.00	29.861 
11:00	29.0	24.6	29.0	79	23.3	4	9	270	0.00	29.858 
11:05	29.1	29.1	29.1	78	23.1	3	6	315	0.00	29.858 
11:10	29.1	24.7	29.1	78	23.1	4	7	315	0.00	29.858 
11:15	29.1	24.7	29.1	78	23.1	4	10	270	0.00	29.858 
11:20	29.1	24.7	29.1	78	23.1	4	9	270	0.00	29.858 
11:25	29.3	29.3	29.3	79	23.6	3	7	248	0.00	29.858 
11:30	29.3	29.3	29.3	79	23.6	3	7	292	0.00	29.857 
11:35	29.3	25.0	29.3	79	23.6	4	9	270	0.00	29.857 
11:40	29.3	29.3	29.3	79	23.6	3	10	315	0.00	29.857 
11:45	29.3	29.3	29.3	79	23.6	3	7	292	0.00	29.859 
11:50	29.4	29.4	29.4	79	23.7	3	9	270	0.00	29.859 
11:55	29.4	29.4	29.4	79	23.7	3	9	315	0.00	29.859 
12:00	29.4	25.1	29.4	79	23.7	4	9	270	0.00	29.856 
12:05	29.4	29.4	29.4	80	24.0	3	6	270	0.00	29.856 
12:10	29.5	25.2	29.5	80	24.1	4	7	270	0.00	29.856 
12:15	29.5	29.5	29.5	80	24.1	3	6	270	0.00	29.851 
12:20	29.7	29.7	29.7	80	24.3	3	8	315	0.00	29.851 
12:25	29.7	25.4	29.7	80	24.3	4	7	270	0.00	29.851 
12:30	29.8	29.8	29.8	81	24.7	3	9	270	0.00	29.846 
12:35	30.0	25.8	30.0	81	24.9	4	9	270	0.00	29.846 
12:40	30.1	30.1	30.1	80	24.7	3	11	292	0.00	29.846 
12:45	30.1	25.9	30.1	80	24.7	4	9	270	0.00	29.838 
12:50	30.3	30.3	30.3	80	24.9	3	8	270	0.00	29.838 
12:55	30.3	26.1	30.3	80	24.9	4	9	270	0.00	29.838 
13:00	30.3	26.1	30.3	80	24.9	4	11	270	0.00	29.827 
13:05	30.4	30.4	30.4	80	25.0	3	7	270	0.00	29.827 
13:10	30.4	26.2	30.4	80	25.0	4	7	270	0.00	29.827 
13:15	30.6	26.5	30.6	79	24.9	4	9	270	0.00	29.819 
13:20	30.6	26.5	30.6	79	24.9	4	7	270	0.00	29.819 
13:25	30.7	30.7	30.7	79	25.0	3	5	292	0.00	29.819 
13:30	30.7	30.7	30.7	79	25.0	3	7	270	0.00	29.811 
13:35	30.7	26.6	30.7	79	25.0	4	7	270	0.00	29.811 
13:40	30.7	30.7	30.7	79	25.0	3	5	270	0.00	29.811 
13:45	30.9	30.9	30.9	79	25.2	2	6	270	0.00	29.809 
13:50	30.9	30.9	30.9	78	24.9	3	7	270	0.00	29.809 
13:55	30.9	26.8	30.9	77	24.6	4	10	270	0.00	29.809 
14:00	30.9	26.8	30.9	78	24.9	4	7	315	0.00	29.808 
14:05	30.9	25.8	30.9	78	24.9	5	11	270	0.00	29.808 
14:10	30.7	26.6	30.7	79	25.0	4	9	315	0.00	29.808 
14:15	30.6	26.5	30.6	80	25.2	4	9	248	0.00	29.807 
14:20	30.6	26.5	30.6	80	25.2	4	12	270	0.00	29.807 
14:25	30.6	26.5	30.6	80	25.2	4	10	270	0.00	29.807 
14:30	30.7	26.6	30.7	80	25.3	4	9	292	0.00	29.796 
14:35	30.6	25.4	30.6	80	25.2	5	11	270	0.00	29.796 
14:40	30.4	26.2	30.4	81	25.3	4	9	270	0.00	29.796 
14:45	30.4	26.2	30.4	81	25.3	4	11	270	0.00	29.794 
14:50	30.4	26.2	30.4	81	25.3	4	9	315	0.00	29.794 
14:55	30.4	26.2	30.4	81	25.3	4	11	270	0.00	29.794 
15:00	30.4	26.2	30.4	81	25.3	4	9	270	0.00	29.791 
15:05	30.3	25.1	30.3	82	25.5	5	10	270	0.00	29.791 
15:10	30.3	30.3	30.3	82	25.5	3	7	315	0.00	29.791 
15:15	30.3	26.1	30.3	82	25.5	4	7	292	0.00	29.791 
15:20	30.3	26.1	30.3	82	25.5	4	7	270	0.00	29.791 
15:25	30.3	26.1	30.3	82	25.5	4	9	315	0.00	29.791 
15:30	30.3	26.1	30.3	83	25.8	4	9	270	0.00	29.787 
15:35	30.1	25.9	30.1	83	25.6	4	11	270	0.00	29.787 
15:40	30.0	25.8	30.0	84	25.8	4	10	270	0.00	29.787 
15:45	29.8	29.8	29.8	84	25.6	3	8	292	0.00	29.791 
15:50	29.7	29.7	29.7	85	25.8	3	9	292	0.00	29.791 
15:55	29.7	25.4	29.7	85	25.8	4	7	270	0.00	29.791 
16:00	29.5	25.2	29.5	85	25.6	4	9	270	0.00	29.793 
16:05	29.4	29.4	29.4	86	25.7	3	6	270	0.00	29.793 
16:10	29.0	29.0	29.0	86	25.3	3	5	270	0.00	29.793 
16:15	28.8	28.8	28.8	87	25.4	3	7	292	0.00	29.800 
16:20	28.5	24.0	28.5	87	25.1	4	9	270	0.00	29.800 
16:25	28.4	28.4	28.4	87	25.0	3	6	292	0.00	29.800 
16:30	28.2	28.2	28.2	87	24.8	3	9	270	0.00	29.801 
16:35	28.1	28.1	28.1	87	24.7	3	6	270	0.00	29.801 
16:40	27.6	23.0	27.6	87	24.2	4	7	270	0.00	29.801 
16:45	27.5	27.5	27.5	88	24.4	3	5	270	0.00	29.809 
16:50	27.3	27.3	27.3	88	24.2	3	9	270	0.00	29.809 
16:55	27.3	27.3	27.3	88	24.2	3	7	270	0.00	29.809 
17:00	27.3	27.3	27.3	88	24.2	3	5	270	0.00	29.813 
17:05	27.3	27.3	27.3	88	24.2	3	6	270	0.00	29.813 
17:10	27.2	27.2	27.2	88	24.1	2	5	270	0.00	29.813 
17:15	27.3	27.3	27.3	88	24.2	2	5	270	0.00	29.813 
17:20	27.3	27.3	27.3	88	24.2	3	6	248	0.00	29.813 
17:25	27.5	27.5	27.5	88	24.4	2	5	270	0.00	29.813 
17:30	27.5	27.5	27.5	88	24.4	1	3	270	0.00	29.810 
17:35	27.5	27.5	27.5	88	24.4	2	5	270	0.00	29.810 
17:40	27.5	27.5	27.5	88	24.4	2	4	315	0.00	29.810 
17:45	27.6	27.6	27.6	89	24.8	2	4	248	0.00	29.809 
17:50	27.8	27.8	27.8	89	25.0	2	5	270	0.00	29.809 
17:55	27.9	27.9	27.9	89	25.1	3	7	315	0.00	29.809 
18:00	28.1	28.1	28.1	89	25.3	2	9	270	0.00	29.809 
18:05	28.1	28.1	28.1	89	25.3	3	6	270	0.00	29.809 
18:10	27.9	27.9	27.9	89	25.1	3	6	292	0.00	29.809 
18:15	27.9	27.9	27.9	89	25.1	3	5	270	0.00	29.806 
18:20	27.9	27.9	27.9	89	25.1	3	6	270	0.00	29.806 
18:25	27.9	27.9	27.9	90	25.4	3	6	270	0.00	29.806 
18:30	27.8	27.8	27.8	90	25.3	2	5	315	0.00	29.799 
18:35	27.8	27.8	27.8	90	25.3	3	6	270	0.00	29.799 
18:40	27.8	27.8	27.8	90	25.3	3	6	270	0.00	29.799 
18:45	27.6	27.6	27.6	90	25.1	3	7	270	0.00	29.796 
18:50	27.6	27.6	27.6	90	25.1	3	11	270	0.00	29.796 
18:55	27.6	27.6	27.6	90	25.1	3	6	270	0.00	29.796 
19:00	27.6	27.6	27.6	90	25.1	3	7	270	0.00	29.795 
19:05	27.6	27.6	27.6	90	25.1	3	6	270	0.00	29.795 
19:10	27.6	27.6	27.6	90	25.1	3	7	270	0.00	29.795 
19:15	27.6	27.6	27.6	90	25.1	3	7	315	0.00	29.794 
19:20	27.6	27.6	27.6	90	25.1	3	7	270	0.00	29.794 
19:25	27.6	27.6	27.6	90	25.1	3	9	315	0.00	29.794 
19:30	27.6	27.6	27.6	90	25.1	3	6	270	0.00	29.793 
19:35	27.6	27.6	27.6	90	25.1	3	11	248	0.00	29.793 
19:40	27.6	27.6	27.6	90	25.1	2	5	315	0.00	29.793 
19:45	27.6	27.6	27.6	90	25.1	3	6	270	0.00	29.796 
19:50	27.6	27.6	27.6	90	25.1	2	6	315	0.00	29.796 
19:55	27.6	27.6	27.6	90	25.1	2	10	315	0.00	29.796 
20:00	27.6	27.6	27.6	90	25.1	2	4	270	0.00	29.795 
20:05	27.8	27.8	27.8	90	25.3	2	6	292	0.00	29.795 
20:10	27.8	27.8	27.8	90	25.3	3	7	315	0.00	29.795 
20:15	27.8	27.8	27.8	90	25.3	2	5	292	0.00	29.792 
20:20	27.8	27.8	27.8	90	25.3	2	4	270	0.00	29.792 
20:25	27.8	27.8	27.8	90	25.3	2	7	270	0.00	29.792 
20:30	27.8	27.8	27.8	91	25.5	2	4	270	0.00	29.794 
20:35	27.9	27.9	27.9	91	25.6	2	4	248	0.00	29.794 
20:40	27.9	27.9	27.9	91	25.6	2	6	248	0.00	29.794 
20:45	27.9	27.9	27.9	91	25.6	2	4	315	0.00	29.794 
20:50	27.9	27.9	27.9	91	25.6	2	6	248	0.00	29.794 
20:55	28.1	28.1	28.1	91	25.8	1	4	315	0.00	29.794 
21:00	28.1	28.1	28.1	91	25.8	2	5	315	0.00	29.793 
21:05	28.1	28.1	28.1	91	25.8	2	4	338	0.00	29.793 
21:10	28.2	28.2	28.2	91	25.9	1	5	292	0.00	29.793 
21:15	28.2	28.2	28.2	91	25.9	2	7	338	0.00	29.794 
21:20	28.2	28.2	28.2	92	26.2	1	3	315	0.00	29.794 
21:25	28.4	28.4	28.4	92	26.4	2	4	270	0.00	29.794 
21:30	28.4	28.4	28.4	92	26.4	1	4	338	0.00	29.793 
21:35	28.4	28.4	28.4	92	26.4	1	3	270	0.00	29.793 
21:40	28.4	28.4	28.4	92	26.4	1	4	248	0.00	29.793 
21:45	28.4	28.4	28.4	92	26.4	2	6	248	0.00	29.792 
21:50	28.4	28.4	28.4	92	26.4	2	3	292	0.00	29.792 
21:55	28.4	28.4	28.4	92	26.4	2	3	270	0.00	29.792 
22:00	28.4	28.4	28.4	92	26.4	1	3	292	0.00	29.792 
22:05	28.4	28.4	28.4	92	26.4	2	4	270	0.00	29.792 
22:10	28.4	28.4	28.4	92	26.4	1	3	315	0.00	29.792 
22:15	28.5	28.5	28.5	92	26.5	1	3	270	0.00	29.790 
22:20	28.5	28.5	28.5	92	26.5	1	4	248	0.00	29.790 
22:25	28.5	28.5	28.5	92	26.5	1	4	270	0.00	29.790 
22:30	28.5	28.5	28.5	92	26.5	1	5	270	0.00	29.791 
22:35	28.7	28.7	28.7	92	26.7	1	3	315	0.00	29.791 
22:40	28.7	28.7	28.7	92	26.7	1	4	315	0.00	29.791 
22:45	28.7	28.7	28.7	91	26.4	1	4	315	0.00	29.785 
22:50	28.7	28.7	28.7	91	26.4	1	5	315	0.00	29.785 
22:55	28.7	28.7	28.7	91	26.4	1	6	270	0.00	29.785 
23:00	28.7	28.7	28.7	91	26.4	2	4	270	0.00	29.787 
23:05	28.5	28.5	28.5	91	26.2	1	4	338	0.00	29.787 
23:10	28.5	28.5	28.5	91	26.2	1	3	225	0.00	29.787 
23:15	28.5	28.5	28.5	91	26.2	1	3	315	0.00	29.789 
23:20	28.5	28.5	28.5	92	26.5	1	2	315	0.00	29.789 
23:25	28.5	28.5	28.5	92	26.5	1	4	270	0.00	29.789 
23:30	28.5	28.5	28.5	92	26.5	0	3	338	0.00	29.792 
23:35	28.5	28.5	28.5	92	26.5	0	2	225	0.00	29.792 
23:40	28.4	28.4	28.4	92	26.4	1	3	225	0.00	29.792 
23:45	28.4	28.4	28.4	92	26.4	1	2	270	0.00	29.794 
23:50	28.4	28.4	28.4	92	26.4	0	1	270	0.00	29.794 
23:55	28.4	28.4	28.4	92	26.4	0	1	270	0.00	29.794 

CoCoRaHS
IN-AL-39
A2 Web Hosting
Creative Commons License
GoDaddy
search engine by freefind advanced

loaded 2018-11-15 05:03:23 • last modified 2010-11-18 10:43:29
Privacy PolicyDisclaimer
• wx.awcolley.com is powered by PmWiki v.2002016 •
• all content (unless otherwise noted) © 2018 A W Colley